sensor_id;sensor_type;location;lat;lon;timestamp;P1;durP1;ratioP1;P2;durP2;ratioP2
14019;SDS011;7085;51.428;6.796;2022-10-16T06:06:32;1.67;;;1.50;;
14019;SDS011;7085;51.428;6.796;2022-10-16T06:09:01;2.97;;;2.20;;
14019;SDS011;7085;51.428;6.796;2022-10-16T06:11:29;3.10;;;2.03;;
14019;SDS011;7085;51.428;6.796;2022-10-16T06:13:57;2.17;;;1.60;;
14019;SDS011;7085;51.428;6.796;2022-10-16T06:16:26;3.60;;;1.93;;
14019;SDS011;7085;51.428;6.796;2022-10-16T06:18:54;2.73;;;1.90;;
14019;SDS011;7085;51.428;6.796;2022-10-16T06:21:22;2.03;;;1.83;;
14019;SDS011;7085;51.428;6.796;2022-10-16T06:23:52;2.55;;;1.80;;
14019;SDS011;7085;51.428;6.796;2022-10-16T06:26:20;1.70;;;1.60;;
14019;SDS011;7085;51.428;6.796;2022-10-16T06:28:47;4.95;;;1.90;;
14019;SDS011;7085;51.428;6.796;2022-10-16T06:31:15;3.00;;;1.70;;
14019;SDS011;7085;51.428;6.796;2022-10-16T06:33:42;2.25;;;2.05;;
14019;SDS011;7085;51.428;6.796;2022-10-16T06:36:11;1.98;;;1.88;;
14019;SDS011;7085;51.428;6.796;2022-10-16T06:38:39;4.43;;;1.70;;
14019;SDS011;7085;51.428;6.796;2022-10-16T06:41:09;2.60;;;2.00;;
14019;SDS011;7085;51.428;6.796;2022-10-16T06:43:37;3.33;;;1.85;;
14019;SDS011;7085;51.428;6.796;2022-10-16T06:46:05;1.83;;;1.73;;
14019;SDS011;7085;51.428;6.796;2022-10-16T06:48:33;1.77;;;1.67;;
14019;SDS011;7085;51.428;6.796;2022-10-16T06:51:01;2.00;;;1.77;;
14019;SDS011;7085;51.428;6.796;2022-10-16T06:53:28;2.17;;;1.77;;
14019;SDS011;7085;51.428;6.796;2022-10-16T06:55:56;1.90;;;1.80;;
14019;SDS011;7085;51.428;6.796;2022-10-16T06:58:24;2.38;;;1.60;;
14019;SDS011;7085;51.428;6.796;2022-10-16T07:00:55;2.28;;;1.95;;
14019;SDS011;7085;51.428;6.796;2022-10-16T07:03:22;1.90;;;1.80;;
14019;SDS011;7085;51.428;6.796;2022-10-16T07:05:49;2.38;;;1.55;;
14019;SDS011;7085;51.428;6.796;2022-10-16T07:08:17;2.22;;;1.52;;
14019;SDS011;7085;51.428;6.796;2022-10-16T07:10:44;1.90;;;1.80;;
14019;SDS011;7085;51.428;6.796;2022-10-16T07:13:11;3.05;;;1.65;;
14019;SDS011;7085;51.428;6.796;2022-10-16T07:15:40;1.95;;;1.58;;
14019;SDS011;7085;51.428;6.796;2022-10-16T07:18:07;2.30;;;1.92;;
14019;SDS011;7085;51.428;6.796;2022-10-16T07:20:35;2.30;;;1.85;;
14019;SDS011;7085;51.428;6.796;2022-10-16T07:23:02;2.10;;;1.77;;
14019;SDS011;7085;51.428;6.796;2022-10-16T07:25:29;1.70;;;1.60;;
14019;SDS011;7085;51.428;6.796;2022-10-16T07:27:56;1.90;;;1.70;;
14019;SDS011;7085;51.428;6.796;2022-10-16T07:30:23;2.17;;;1.77;;
14019;SDS011;7085;51.428;6.796;2022-10-16T07:32:51;2.95;;;1.85;;
14019;SDS011;7085;51.428;6.796;2022-10-16T07:35:18;3.05;;;2.40;;
14019;SDS011;7085;51.428;6.796;2022-10-16T07:37:45;3.13;;;1.90;;
14019;SDS011;7085;51.428;6.796;2022-10-16T07:40:13;2.33;;;1.70;;
14019;SDS011;7085;51.428;6.796;2022-10-16T07:42:40;3.83;;;1.83;;
14019;SDS011;7085;51.428;6.796;2022-10-16T07:45:07;2.03;;;1.63;;
14019;SDS011;7085;51.428;6.796;2022-10-16T07:47:34;2.30;;;1.55;;
14019;SDS011;7085;51.428;6.796;2022-10-16T07:50:03;2.08;;;1.80;;
14019;SDS011;7085;51.428;6.796;2022-10-16T07:52:30;2.15;;;1.40;;
14019;SDS011;7085;51.428;6.796;2022-10-16T07:54:57;3.65;;;1.73;;
14019;SDS011;7085;51.428;6.796;2022-10-16T07:57:24;1.88;;;1.50;;
14019;SDS011;7085;51.428;6.796;2022-10-16T07:59:51;1.52;;;1.38;;
14019;SDS011;7085;51.428;6.796;2022-10-16T08:02:18;1.73;;;1.27;;
14019;SDS011;7085;51.428;6.796;2022-10-16T08:04:46;2.60;;;1.35;;
14019;SDS011;7085;51.428;6.796;2022-10-16T08:07:14;3.63;;;1.40;;
14019;SDS011;7085;51.428;6.796;2022-10-16T08:09:41;2.08;;;1.40;;
14019;SDS011;7085;51.428;6.796;2022-10-16T08:12:08;1.75;;;1.15;;
14019;SDS011;7085;51.428;6.796;2022-10-16T08:14:36;1.30;;;1.08;;
14019;SDS011;7085;51.428;6.796;2022-10-16T08:17:03;1.85;;;1.25;;
14019;SDS011;7085;51.428;6.796;2022-10-16T08:19:30;2.53;;;1.05;;
14019;SDS011;7085;51.428;6.796;2022-10-16T08:21:59;2.47;;;1.13;;
14019;SDS011;7085;51.428;6.796;2022-10-16T08:24:28;1.42;;;1.27;;
14019;SDS011;7085;51.428;6.796;2022-10-16T08:26:56;2.50;;;1.23;;
14019;SDS011;7085;51.428;6.796;2022-10-16T08:29:23;1.42;;;1.33;;
14019;SDS011;7085;51.428;6.796;2022-10-16T08:31:50;1.95;;;1.27;;
14019;SDS011;7085;51.428;6.796;2022-10-16T08:34:17;1.80;;;0.85;;
14019;SDS011;7085;51.428;6.796;2022-10-16T08:36:44;2.03;;;1.30;;
14019;SDS011;7085;51.428;6.796;2022-10-16T08:39:11;3.13;;;1.35;;
14019;SDS011;7085;51.428;6.796;2022-10-16T08:41:54;3.35;;;1.13;;
14019;SDS011;7085;51.428;6.796;2022-10-16T08:44:31;1.60;;;1.15;;
14019;SDS011;7085;51.428;6.796;2022-10-16T08:47:02;1.63;;;1.42;;
14019;SDS011;7085;51.428;6.796;2022-10-16T08:49:34;2.45;;;1.40;;
14019;SDS011;7085;51.428;6.796;2022-10-16T08:52:01;3.05;;;1.45;;
14019;SDS011;7085;51.428;6.796;2022-10-16T08:54:29;4.68;;;1.55;;
14019;SDS011;7085;51.428;6.796;2022-10-16T08:57:04;4.38;;;1.90;;
14019;SDS011;7085;51.428;6.796;2022-10-16T08:59:34;2.60;;;1.70;;
14019;SDS011;7085;51.428;6.796;2022-10-16T09:02:01;1.80;;;1.33;;
14019;SDS011;7085;51.428;6.796;2022-10-16T09:07:21;1.67;;;1.52;;
14019;SDS011;7085;51.428;6.796;2022-10-16T09:09:54;2.45;;;1.13;;
14019;SDS011;7085;51.428;6.796;2022-10-16T09:12:28;4.50;;;1.42;;
14019;SDS011;7085;51.428;6.796;2022-10-16T09:14:59;2.53;;;1.48;;
14019;SDS011;7085;51.428;6.796;2022-10-16T09:17:34;1.80;;;1.20;;
14019;SDS011;7085;51.428;6.796;2022-10-16T09:20:10;3.22;;;1.48;;
14019;SDS011;7085;51.428;6.796;2022-10-16T09:22:40;3.25;;;1.02;;
14019;SDS011;7085;51.428;6.796;2022-10-16T09:25:10;2.72;;;1.27;;
14019;SDS011;7085;51.428;6.796;2022-10-16T09:27:39;2.97;;;1.15;;
14019;SDS011;7085;51.428;6.796;2022-10-16T09:30:10;2.80;;;1.17;;
14019;SDS011;7085;51.428;6.796;2022-10-16T09:32:38;0.77;;;0.77;;
14019;SDS011;7085;51.428;6.796;2022-10-16T09:35:09;1.13;;;0.93;;
14019;SDS011;7085;51.428;6.796;2022-10-16T09:37:37;1.42;;;1.10;;
14019;SDS011;7085;51.428;6.796;2022-10-16T09:40:05;2.25;;;1.05;;
14019;SDS011;7085;51.428;6.796;2022-10-16T09:42:34;2.20;;;0.85;;
14019;SDS011;7085;51.428;6.796;2022-10-16T09:45:04;2.25;;;0.93;;
14019;SDS011;7085;51.428;6.796;2022-10-16T09:47:32;1.23;;;0.98;;
14019;SDS011;7085;51.428;6.796;2022-10-16T09:50:05;2.42;;;0.90;;
14019;SDS011;7085;51.428;6.796;2022-10-16T09:52:32;0.55;;;0.55;;
14019;SDS011;7085;51.428;6.796;2022-10-16T09:55:01;4.70;;;1.10;;
14019;SDS011;7085;51.428;6.796;2022-10-16T09:57:29;2.10;;;1.00;;
14019;SDS011;7085;51.428;6.796;2022-10-16T09:59:56;1.63;;;0.70;;
14019;SDS011;7085;51.428;6.796;2022-10-16T10:02:27;3.35;;;0.60;;
14019;SDS011;7085;51.428;6.796;2022-10-16T10:04:56;1.85;;;0.98;;
14019;SDS011;7085;51.428;6.796;2022-10-16T10:07:24;4.65;;;1.10;;
14019;SDS011;7085;51.428;6.796;2022-10-16T10:09:52;4.03;;;1.08;;
14019;SDS011;7085;51.428;6.796;2022-10-16T10:12:20;1.63;;;0.90;;
14019;SDS011;7085;51.428;6.796;2022-10-16T10:14:48;0.80;;;0.50;;
14019;SDS011;7085;51.428;6.796;2022-10-16T10:17:17;4.88;;;0.80;;
14019;SDS011;7085;51.428;6.796;2022-10-16T10:19:52;1.08;;;0.80;;
14019;SDS011;7085;51.428;6.796;2022-10-16T10:22:27;3.35;;;1.00;;
14019;SDS011;7085;51.428;6.796;2022-10-16T13:31:23;4.97;;;1.55;;
14019;SDS011;7085;51.428;6.796;2022-10-16T13:33:59;2.38;;;1.15;;
14019;SDS011;7085;51.428;6.796;2022-10-16T13:36:27;1.52;;;0.82;;
14019;SDS011;7085;51.428;6.796;2022-10-16T13:38:59;1.58;;;0.93;;
14019;SDS011;7085;51.428;6.796;2022-10-16T13:41:27;2.17;;;1.10;;
14019;SDS011;7085;51.428;6.796;2022-10-16T13:43:54;1.17;;;0.80;;
14019;SDS011;7085;51.428;6.796;2022-10-16T13:46:24;1.70;;;0.63;;
14019;SDS011;7085;51.428;6.796;2022-10-16T13:48:58;3.10;;;1.00;;
14019;SDS011;7085;51.428;6.796;2022-10-16T13:51:25;1.77;;;0.80;;
14019;SDS011;7085;51.428;6.796;2022-10-16T13:53:54;2.88;;;1.30;;
14019;SDS011;7085;51.428;6.796;2022-10-16T13:56:22;2.40;;;1.00;;
14019;SDS011;7085;51.428;6.796;2022-10-16T13:58:57;1.30;;;0.95;;
14019;SDS011;7085;51.428;6.796;2022-10-16T14:01:26;1.00;;;0.50;;
14019;SDS011;7085;51.428;6.796;2022-10-16T14:03:59;1.17;;;0.70;;
14019;SDS011;7085;51.428;6.796;2022-10-16T14:06:27;5.68;;;1.10;;
14019;SDS011;7085;51.428;6.796;2022-10-16T14:08:58;2.05;;;0.63;;
14019;SDS011;7085;51.428;6.796;2022-10-16T14:11:26;1.65;;;1.00;;
14019;SDS011;7085;51.428;6.796;2022-10-16T14:13:53;1.77;;;1.00;;
14019;SDS011;7085;51.428;6.796;2022-10-16T14:16:21;2.67;;;0.82;;
14019;SDS011;7085;51.428;6.796;2022-10-16T14:18:54;3.47;;;0.98;;
14019;SDS011;7085;51.428;6.796;2022-10-16T14:21:22;1.55;;;0.70;;
14019;SDS011;7085;51.428;6.796;2022-10-16T14:23:50;2.72;;;0.77;;
14019;SDS011;7085;51.428;6.796;2022-10-16T14:26:17;1.50;;;0.57;;
14019;SDS011;7085;51.428;6.796;2022-10-16T14:28:46;3.15;;;0.60;;
14019;SDS011;7085;51.428;6.796;2022-10-16T14:31:23;2.13;;;0.68;;
14019;SDS011;7085;51.428;6.796;2022-10-16T14:33:53;1.48;;;0.80;;
14019;SDS011;7085;51.428;6.796;2022-10-16T14:36:21;1.73;;;0.50;;
14019;SDS011;7085;51.428;6.796;2022-10-16T14:38:49;1.30;;;0.70;;
14019;SDS011;7085;51.428;6.796;2022-10-16T14:41:19;1.35;;;0.75;;
14019;SDS011;7085;51.428;6.796;2022-10-16T14:43:49;0.90;;;0.70;;
14019;SDS011;7085;51.428;6.796;2022-10-16T14:46:18;1.90;;;1.05;;
14019;SDS011;7085;51.428;6.796;2022-10-16T15:36:28;3.45;;;1.38;;
14019;SDS011;7085;51.428;6.796;2022-10-16T15:38:56;5.30;;;1.63;;
14019;SDS011;7085;51.428;6.796;2022-10-16T15:41:23;5.05;;;1.77;;
14019;SDS011;7085;51.428;6.796;2022-10-16T15:43:50;2.78;;;1.20;;
14019;SDS011;7085;51.428;6.796;2022-10-16T15:46:18;1.25;;;0.90;;
14019;SDS011;7085;51.428;6.796;2022-10-16T15:48:45;4.20;;;1.27;;
14019;SDS011;7085;51.428;6.796;2022-10-16T15:51:12;2.50;;;1.02;;
14019;SDS011;7085;51.428;6.796;2022-10-16T15:53:41;4.50;;;1.48;;
14019;SDS011;7085;51.428;6.796;2022-10-16T15:56:08;1.83;;;1.10;;
14019;SDS011;7085;51.428;6.796;2022-10-16T15:58:39;5.65;;;1.42;;
14019;SDS011;7085;51.428;6.796;2022-10-16T16:01:06;3.65;;;1.15;;
14019;SDS011;7085;51.428;6.796;2022-10-16T16:03:35;4.53;;;1.05;;
14019;SDS011;7085;51.428;6.796;2022-10-16T16:06:05;6.30;;;1.13;;
14019;SDS011;7085;51.428;6.796;2022-10-16T16:08:32;2.38;;;1.20;;
14019;SDS011;7085;51.428;6.796;2022-10-16T16:11:02;3.63;;;1.42;;
14019;SDS011;7085;51.428;6.796;2022-10-16T16:13:29;2.22;;;1.05;;
14019;SDS011;7085;51.428;6.796;2022-10-16T16:15:56;3.33;;;1.50;;
14019;SDS011;7085;51.428;6.796;2022-10-16T16:18:24;4.20;;;1.13;;
14019;SDS011;7085;51.428;6.796;2022-10-16T16:20:51;3.47;;;1.35;;
14019;SDS011;7085;51.428;6.796;2022-10-16T16:23:18;5.38;;;1.23;;
14019;SDS011;7085;51.428;6.796;2022-10-16T16:25:45;6.80;;;1.38;;
14019;SDS011;7085;51.428;6.796;2022-10-16T16:28:13;2.55;;;1.20;;
14019;SDS011;7085;51.428;6.796;2022-10-16T16:30:40;3.15;;;1.30;;
14019;SDS011;7085;51.428;6.796;2022-10-16T16:33:07;2.72;;;1.00;;
14019;SDS011;7085;51.428;6.796;2022-10-16T16:35:34;2.45;;;1.33;;
14019;SDS011;7085;51.428;6.796;2022-10-16T16:38:01;1.45;;;1.00;;
14019;SDS011;7085;51.428;6.796;2022-10-16T16:40:28;4.57;;;1.10;;
14019;SDS011;7085;51.428;6.796;2022-10-16T16:42:55;5.60;;;1.35;;
14019;SDS011;7085;51.428;6.796;2022-10-16T16:45:24;3.00;;;1.27;;
14019;SDS011;7085;51.428;6.796;2022-10-16T16:47:51;4.80;;;0.90;;
14019;SDS011;7085;51.428;6.796;2022-10-16T16:50:18;1.60;;;0.98;;
14019;SDS011;7085;51.428;6.796;2022-10-16T16:52:45;4.70;;;1.55;;
14019;SDS011;7085;51.428;6.796;2022-10-16T16:55:12;4.07;;;1.30;;
14019;SDS011;7085;51.428;6.796;2022-10-16T16:57:39;2.03;;;1.30;;
14019;SDS011;7085;51.428;6.796;2022-10-16T17:00:07;16.95;;;1.98;;
14019;SDS011;7085;51.428;6.796;2022-10-16T17:02:35;4.13;;;1.30;;
14019;SDS011;7085;51.428;6.796;2022-10-16T17:05:08;7.40;;;1.95;;
14019;SDS011;7085;51.428;6.796;2022-10-16T17:07:35;6.40;;;1.40;;
14019;SDS011;7085;51.428;6.796;2022-10-16T17:10:05;2.15;;;1.00;;
14019;SDS011;7085;51.428;6.796;2022-10-16T17:12:32;5.82;;;1.30;;
14019;SDS011;7085;51.428;6.796;2022-10-16T17:14:59;3.28;;;1.23;;
14019;SDS011;7085;51.428;6.796;2022-10-16T17:17:27;5.47;;;1.52;;
14019;SDS011;7085;51.428;6.796;2022-10-16T17:19:55;7.03;;;1.90;;
14019;SDS011;7085;51.428;6.796;2022-10-16T17:22:22;4.75;;;1.35;;
14019;SDS011;7085;51.428;6.796;2022-10-16T17:24:49;4.55;;;1.40;;
14019;SDS011;7085;51.428;6.796;2022-10-16T17:27:18;2.78;;;1.50;;
14019;SDS011;7085;51.428;6.796;2022-10-16T17:29:49;2.17;;;1.10;;
14019;SDS011;7085;51.428;6.796;2022-10-16T17:32:16;3.55;;;1.45;;
14019;SDS011;7085;51.428;6.796;2022-10-16T17:34:44;4.18;;;1.60;;
14019;SDS011;7085;51.428;6.796;2022-10-16T17:37:13;3.03;;;1.10;;
14019;SDS011;7085;51.428;6.796;2022-10-16T17:39:40;4.15;;;1.30;;
14019;SDS011;7085;51.428;6.796;2022-10-16T17:42:07;4.18;;;1.85;;
14019;SDS011;7085;51.428;6.796;2022-10-16T17:44:34;2.83;;;1.83;;
14019;SDS011;7085;51.428;6.796;2022-10-16T17:47:01;8.52;;;2.50;;
14019;SDS011;7085;51.428;6.796;2022-10-16T17:49:28;4.10;;;2.33;;
14019;SDS011;7085;51.428;6.796;2022-10-16T17:51:55;2.70;;;2.10;;
14019;SDS011;7085;51.428;6.796;2022-10-16T17:54:24;2.28;;;2.08;;
14019;SDS011;7085;51.428;6.796;2022-10-16T17:56:52;3.90;;;2.00;;
14019;SDS011;7085;51.428;6.796;2022-10-16T17:59:19;6.35;;;2.50;;
14019;SDS011;7085;51.428;6.796;2022-10-16T18:01:47;3.08;;;2.72;;
14019;SDS011;7085;51.428;6.796;2022-10-16T18:04:15;5.00;;;2.38;;
14019;SDS011;7085;51.428;6.796;2022-10-16T18:06:43;7.07;;;2.58;;
14019;SDS011;7085;51.428;6.796;2022-10-16T18:09:12;4.57;;;2.05;;
14019;SDS011;7085;51.428;6.796;2022-10-16T18:11:41;4.28;;;2.78;;
14019;SDS011;7085;51.428;6.796;2022-10-16T18:14:10;3.83;;;2.45;;
14019;SDS011;7085;51.428;6.796;2022-10-16T18:16:38;3.53;;;2.58;;
14019;SDS011;7085;51.428;6.796;2022-10-16T18:19:05;7.28;;;3.08;;
14019;SDS011;7085;51.428;6.796;2022-10-16T18:21:32;7.00;;;3.10;;
14019;SDS011;7085;51.428;6.796;2022-10-16T18:23:59;4.90;;;2.95;;
14019;SDS011;7085;51.428;6.796;2022-10-16T18:26:27;3.30;;;2.70;;
14019;SDS011;7085;51.428;6.796;2022-10-16T18:28:55;6.15;;;3.15;;
14019;SDS011;7085;51.428;6.796;2022-10-16T18:31:26;5.88;;;2.40;;
14019;SDS011;7085;51.428;6.796;2022-10-16T18:33:54;3.00;;;2.70;;
14019;SDS011;7085;51.428;6.796;2022-10-16T18:36:22;5.07;;;2.28;;
14019;SDS011;7085;51.428;6.796;2022-10-16T18:38:49;4.68;;;2.40;;
14019;SDS011;7085;51.428;6.796;2022-10-16T18:41:19;2.13;;;1.80;;
14019;SDS011;7085;51.428;6.796;2022-10-16T18:43:46;2.30;;;2.10;;
14019;SDS011;7085;51.428;6.796;2022-10-16T18:46:16;5.00;;;1.90;;
14019;SDS011;7085;51.428;6.796;2022-10-16T18:48:43;3.17;;;2.10;;
14019;SDS011;7085;51.428;6.796;2022-10-16T18:51:12;3.00;;;2.03;;
14019;SDS011;7085;51.428;6.796;2022-10-16T18:53:40;3.38;;;2.13;;
14019;SDS011;7085;51.428;6.796;2022-10-16T18:56:07;3.50;;;2.00;;
14019;SDS011;7085;51.428;6.796;2022-10-16T18:58:34;3.83;;;2.22;;
14019;SDS011;7085;51.428;6.796;2022-10-16T19:01:03;6.95;;;2.30;;
14019;SDS011;7085;51.428;6.796;2022-10-16T19:03:31;7.32;;;2.10;;
14019;SDS011;7085;51.428;6.796;2022-10-16T19:05:59;4.15;;;2.35;;
14019;SDS011;7085;51.428;6.796;2022-10-16T19:08:26;2.30;;;1.98;;
14019;SDS011;7085;51.428;6.796;2022-10-16T19:10:56;6.80;;;2.30;;
14019;SDS011;7085;51.428;6.796;2022-10-16T19:13:23;3.97;;;2.33;;
14019;SDS011;7085;51.428;6.796;2022-10-16T19:15:50;3.70;;;2.28;;
14019;SDS011;7085;51.428;6.796;2022-10-16T19:18:17;2.95;;;2.00;;
14019;SDS011;7085;51.428;6.796;2022-10-16T19:20:46;2.45;;;1.85;;
14019;SDS011;7085;51.428;6.796;2022-10-16T19:23:13;2.83;;;2.00;;
14019;SDS011;7085;51.428;6.796;2022-10-16T19:25:40;2.05;;;1.70;;
14019;SDS011;7085;51.428;6.796;2022-10-16T19:28:07;3.60;;;1.60;;
14019;SDS011;7085;51.428;6.796;2022-10-16T19:30:34;3.17;;;1.63;;
14019;SDS011;7085;51.428;6.796;2022-10-16T19:33:02;4.93;;;1.75;;
14019;SDS011;7085;51.428;6.796;2022-10-16T19:35:29;1.83;;;1.52;;
14019;SDS011;7085;51.428;6.796;2022-10-16T19:37:58;2.28;;;1.60;;
14019;SDS011;7085;51.428;6.796;2022-10-16T19:40:25;7.30;;;1.90;;
14019;SDS011;7085;51.428;6.796;2022-10-16T19:42:52;3.67;;;1.80;;
14019;SDS011;7085;51.428;6.796;2022-10-16T19:45:19;4.40;;;1.95;;
14019;SDS011;7085;51.428;6.796;2022-10-16T19:47:46;2.08;;;1.67;;
14019;SDS011;7085;51.428;6.796;2022-10-16T19:50:13;3.58;;;1.83;;
14019;SDS011;7085;51.428;6.796;2022-10-16T19:52:43;1.45;;;1.30;;
14019;SDS011;7085;51.428;6.796;2022-10-16T19:55:11;1.85;;;1.67;;
14019;SDS011;7085;51.428;6.796;2022-10-16T19:57:38;2.72;;;2.33;;
14019;SDS011;7085;51.428;6.796;2022-10-16T20:00:06;2.38;;;1.90;;
14019;SDS011;7085;51.428;6.796;2022-10-16T20:02:34;2.28;;;1.58;;
14019;SDS011;7085;51.428;6.796;2022-10-16T20:05:01;3.85;;;1.73;;
14019;SDS011;7085;51.428;6.796;2022-10-16T20:07:28;1.77;;;1.65;;
14019;SDS011;7085;51.428;6.796;2022-10-16T20:09:56;5.35;;;1.60;;
14019;SDS011;7085;51.428;6.796;2022-10-16T20:12:25;3.45;;;1.77;;
14019;SDS011;7085;51.428;6.796;2022-10-16T20:14:52;4.32;;;1.50;;
14019;SDS011;7085;51.428;6.796;2022-10-16T20:17:19;2.33;;;1.55;;
14019;SDS011;7085;51.428;6.796;2022-10-16T20:19:46;4.82;;;1.98;;
14019;SDS011;7085;51.428;6.796;2022-10-16T20:22:13;4.05;;;1.80;;
14019;SDS011;7085;51.428;6.796;2022-10-16T20:24:40;2.97;;;1.50;;
